Check out our new PWSWeather beta!
PWSweather.com
Personal Weather Stations
Station Observations
KMDSOLOM1
solomons, Solomons, MD 20688

solomonsSolomons, MD 20688

Lat: 38.32, Lon: -76.45

Elevation: 5

Station Type:

http://www.act-us.info/weather

High Low Average
Temperature 49.9°F9.9°C 33.3°F0.7°C 41.6°F5.3°C
Dew Point 35.9°F2.2°C 17.8°F-7.9°C 29.6°F-1.3°C
Winds 11.0 mph 17.7 kmh Calm Calm 4.0 mph WSW6.4 kmh WSW
Wind Gusts 15.0 mph24.1 kmh -- 6.0 mph9.7 kmh
Humidity 95% 29% 66%
Pressure 30.42 in1030.1 mb 30.31 in1026.4 mb -
Precipitation 0.00 in0.0 mm - -
Hour Temp Dew Point Humidity Winds Wind Gusts Pressure Precip Precip Rate Daily Precip Total
12:00 AM 36.6°F2.6°C 34.5°F1.4°C 92% 1.0 mph NNW1.6 kmh NNW 5.0 mph8.0 kmh 30.32 in1026.8 mb 0.00 in0.0 mm 0.00 in0.0 mm 0.00 in0.0 mm
12:05 AM 36.5°F2.5°C 34.4°F1.3°C 92% 1.0 mph NW1.6 kmh NW 5.0 mph8.0 kmh 30.32 in1026.8 mb 0.00 in0.0 mm 0.00 in0.0 mm 0.00 in0.0 mm
12:10 AM 36.4°F2.4°C 34.6°F1.4°C 93% Calm Calm 1.0 mph1.6 kmh 30.32 in1026.8 mb 0.00 in0.0 mm 0.00 in0.0 mm 0.00 in0.0 mm
12:15 AM 36.3°F2.4°C 34.5°F1.4°C 93% 2.0 mph NW3.2 kmh NW 2.0 mph3.2 kmh 30.32 in1026.8 mb 0.00 in0.0 mm 0.00 in0.0 mm 0.00 in0.0 mm
12:20 AM 36.3°F2.4°C 34.5°F1.4°C 93% 2.0 mph NW3.2 kmh NW 2.0 mph3.2 kmh 30.32 in1026.8 mb 0.00 in0.0 mm 0.00 in0.0 mm 0.00 in0.0 mm
12:25 AM 36.4°F2.4°C 34.6°F1.4°C 93% Calm Calm 2.0 mph3.2 kmh 30.32 in1026.8 mb 0.00 in0.0 mm 0.00 in0.0 mm 0.00 in0.0 mm
12:30 AM 36.5°F2.5°C 34.7°F1.5°C 93% Calm Calm 2.0 mph3.2 kmh 30.32 in1026.8 mb 0.00 in0.0 mm 0.00 in0.0 mm 0.00 in0.0 mm
12:35 AM 36.5°F2.5°C 34.7°F1.5°C 93% Calm Calm 2.0 mph3.2 kmh 30.32 in1026.8 mb 0.00 in0.0 mm 0.00 in0.0 mm 0.00 in0.0 mm
12:40 AM 36.5°F2.5°C 34.7°F1.5°C 93% 1.0 mph NW1.6 kmh NW 3.0 mph4.8 kmh 30.32 in1026.8 mb 0.00 in0.0 mm 0.00 in0.0 mm 0.00 in0.0 mm
12:45 AM 36.4°F2.4°C 34.6°F1.4°C 93% Calm Calm 3.0 mph4.8 kmh 30.32 in1026.8 mb 0.00 in0.0 mm 0.00 in0.0 mm 0.00 in0.0 mm
12:50 AM 36.4°F2.4°C 34.6°F1.4°C 93% 1.0 mph NW1.6 kmh NW 3.0 mph4.8 kmh 30.33 in1027.1 mb 0.00 in0.0 mm 0.00 in0.0 mm 0.00 in0.0 mm
12:55 AM 36.3°F2.4°C 34.5°F1.4°C 93% 2.0 mph NW3.2 kmh NW 2.0 mph3.2 kmh 30.32 in1026.8 mb 0.00 in0.0 mm 0.00 in0.0 mm 0.00 in0.0 mm
01:00 AM 36.3°F2.4°C 34.5°F1.4°C 93% 2.0 mph NW3.2 kmh NW 3.0 mph4.8 kmh 30.32 in1026.8 mb 0.00 in0.0 mm 0.00 in0.0 mm 0.00 in0.0 mm
01:05 AM 36.3°F2.4°C 34.7°F1.5°C 94% 1.0 mph NW1.6 kmh NW 4.0 mph6.4 kmh 30.32 in1026.8 mb 0.00 in0.0 mm 0.00 in0.0 mm 0.00 in0.0 mm
01:10 AM 36.2°F2.3°C 34.6°F1.4°C 94% 3.0 mph NW4.8 kmh NW 3.0 mph4.8 kmh 30.32 in1026.8 mb 0.00 in0.0 mm 0.00 in0.0 mm 0.00 in0.0 mm
01:15 AM 36.3°F2.4°C 34.7°F1.5°C 94% 1.0 mph NW1.6 kmh NW 4.0 mph6.4 kmh 30.32 in1026.8 mb 0.00 in0.0 mm 0.00 in0.0 mm 0.00 in0.0 mm
01:20 AM 36.3°F2.4°C 34.7°F1.5°C 94% 2.0 mph NW3.2 kmh NW 4.0 mph6.4 kmh 30.32 in1026.8 mb 0.00 in0.0 mm 0.00 in0.0 mm 0.00 in0.0 mm
01:25 AM 36.4°F2.4°C 34.8°F1.6°C 94% 3.0 mph NW4.8 kmh NW 4.0 mph6.4 kmh 30.32 in1026.8 mb 0.00 in0.0 mm 0.00 in0.0 mm 0.00 in0.0 mm
01:30 AM 36.3°F2.4°C 34.7°F1.5°C 94% 2.0 mph NW3.2 kmh NW 5.0 mph8.0 kmh 30.32 in1026.8 mb 0.00 in0.0 mm 0.00 in0.0 mm 0.00 in0.0 mm
01:35 AM 36.2°F2.3°C 34.6°F1.4°C 94% 1.0 mph NW1.6 kmh NW 5.0 mph8.0 kmh 30.32 in1026.8 mb 0.00 in0.0 mm 0.00 in0.0 mm 0.00 in0.0 mm
01:40 AM 36.2°F2.3°C 34.6°F1.4°C 94% 3.0 mph NW4.8 kmh NW 3.0 mph4.8 kmh 30.31 in1026.4 mb 0.00 in0.0 mm 0.00 in0.0 mm 0.00 in0.0 mm
01:45 AM 36.1°F2.3°C 34.5°F1.4°C 94% 2.0 mph NW3.2 kmh NW 3.0 mph4.8 kmh 30.31 in1026.4 mb 0.00 in0.0 mm 0.00 in0.0 mm 0.00 in0.0 mm
01:50 AM 36.2°F2.3°C 34.6°F1.4°C 94% Calm Calm 3.0 mph4.8 kmh 30.32 in1026.8 mb 0.00 in0.0 mm 0.00 in0.0 mm 0.00 in0.0 mm
01:55 AM 36.1°F2.3°C 34.5°F1.4°C 94% Calm Calm 2.0 mph3.2 kmh 30.32 in1026.8 mb 0.00 in0.0 mm 0.00 in0.0 mm 0.00 in0.0 mm
02:00 AM 36.0°F2.2°C 34.4°F1.3°C 94% 2.0 mph NW3.2 kmh NW 3.0 mph4.8 kmh 30.32 in1026.8 mb 0.00 in0.0 mm 0.00 in0.0 mm 0.00 in0.0 mm
02:05 AM 36.0°F2.2°C 34.4°F1.3°C 94% Calm Calm 3.0 mph4.8 kmh 30.32 in1026.8 mb 0.00 in0.0 mm 0.00 in0.0 mm 0.00 in0.0 mm
02:10 AM 36.0°F2.2°C 34.4°F1.3°C 94% 1.0 mph NW1.6 kmh NW 3.0 mph4.8 kmh 30.32 in1026.8 mb 0.00 in0.0 mm 0.00 in0.0 mm 0.00 in0.0 mm
02:15 AM 36.0°F2.2°C 34.4°F1.3°C 94% 1.0 mph NW1.6 kmh NW 4.0 mph6.4 kmh 30.32 in1026.8 mb 0.00 in0.0 mm 0.00 in0.0 mm 0.00 in0.0 mm
02:20 AM 36.0°F2.2°C 34.4°F1.3°C 94% 2.0 mph NW3.2 kmh NW 4.0 mph6.4 kmh 30.32 in1026.8 mb 0.00 in0.0 mm 0.00 in0.0 mm 0.00 in0.0 mm
02:25 AM 35.9°F2.2°C 34.4°F1.3°C 94% 1.0 mph NW1.6 kmh NW 2.0 mph3.2 kmh 30.32 in1026.8 mb 0.00 in0.0 mm 0.00 in0.0 mm 0.00 in0.0 mm
02:30 AM 35.9°F2.2°C 34.4°F1.3°C 94% 1.0 mph NW1.6 kmh NW 2.0 mph3.2 kmh 30.32 in1026.8 mb 0.00 in0.0 mm 0.00 in0.0 mm 0.00 in0.0 mm
02:35 AM 35.8°F2.1°C 34.3°F1.3°C 94% 1.0 mph NW1.6 kmh NW 3.0 mph4.8 kmh 30.32 in1026.8 mb 0.00 in0.0 mm 0.00 in0.0 mm 0.00 in0.0 mm
02:40 AM 35.8°F2.1°C 34.3°F1.3°C 94% 2.0 mph NW3.2 kmh NW 4.0 mph6.4 kmh 30.31 in1026.4 mb 0.00 in0.0 mm 0.00 in0.0 mm 0.00 in0.0 mm
02:45 AM 35.8°F2.1°C 34.3°F1.3°C 94% 1.0 mph NW1.6 kmh NW 4.0 mph6.4 kmh 30.31 in1026.4 mb 0.00 in0.0 mm 0.00 in0.0 mm 0.00 in0.0 mm
02:50 AM 35.8°F2.1°C 34.3°F1.3°C 94% 2.0 mph NW3.2 kmh NW 4.0 mph6.4 kmh 30.31 in1026.4 mb 0.00 in0.0 mm 0.00 in0.0 mm 0.00 in0.0 mm
02:55 AM 35.8°F2.1°C 34.3°F1.3°C 94% 2.0 mph NW3.2 kmh NW 4.0 mph6.4 kmh 30.32 in1026.8 mb 0.00 in0.0 mm 0.00 in0.0 mm 0.00 in0.0 mm
03:00 AM 35.8°F2.1°C 34.3°F1.3°C 94% Calm Calm 4.0 mph6.4 kmh 30.32 in1026.8 mb 0.00 in0.0 mm 0.00 in0.0 mm 0.00 in0.0 mm
03:05 AM 35.8°F2.1°C 34.3°F1.3°C 94% Calm Calm 4.0 mph6.4 kmh 30.32 in1026.8 mb 0.00 in0.0 mm 0.00 in0.0 mm 0.00 in0.0 mm
03:10 AM 35.7°F2.1°C 34.2°F1.2°C 94% Calm Calm -- 30.32 in1026.8 mb 0.00 in0.0 mm 0.00 in0.0 mm 0.00 in0.0 mm
03:15 AM 35.7°F2.1°C 34.2°F1.2°C 94% Calm Calm -- 30.33 in1027.1 mb 0.00 in0.0 mm 0.00 in0.0 mm 0.00 in0.0 mm
03:20 AM 35.8°F2.1°C 34.3°F1.3°C 94% Calm Calm -- 30.32 in1026.8 mb 0.00 in0.0 mm 0.00 in0.0 mm 0.00 in0.0 mm
03:25 AM 35.8°F2.1°C 34.3°F1.3°C 94% Calm Calm -- 30.32 in1026.8 mb 0.00 in0.0 mm 0.00 in0.0 mm 0.00 in0.0 mm
03:30 AM 35.8°F2.1°C 34.3°F1.3°C 94% 3.0 mph NW4.8 kmh NW 3.0 mph4.8 kmh 30.32 in1026.8 mb 0.00 in0.0 mm 0.00 in0.0 mm 0.00 in0.0 mm
03:35 AM 35.7°F2.1°C 34.2°F1.2°C 94% 1.0 mph NW1.6 kmh NW 3.0 mph4.8 kmh 30.32 in1026.8 mb 0.00 in0.0 mm 0.00 in0.0 mm 0.00 in0.0 mm
03:40 AM 35.7°F2.1°C 34.2°F1.2°C 94% 1.0 mph NW1.6 kmh NW 1.0 mph1.6 kmh 30.32 in1026.8 mb 0.00 in0.0 mm 0.00 in0.0 mm 0.00 in0.0 mm
03:45 AM 35.5°F1.9°C 34.0°F1.1°C 94% 2.0 mph NW3.2 kmh NW 2.0 mph3.2 kmh 30.32 in1026.8 mb 0.00 in0.0 mm 0.00 in0.0 mm 0.00 in0.0 mm
03:50 AM 35.4°F1.9°C 33.9°F1.1°C 94% Calm Calm 2.0 mph3.2 kmh 30.32 in1026.8 mb 0.00 in0.0 mm 0.00 in0.0 mm 0.00 in0.0 mm
03:55 AM 35.2°F1.8°C 33.7°F0.9°C 94% Calm Calm -- 30.32 in1026.8 mb 0.00 in0.0 mm 0.00 in0.0 mm 0.00 in0.0 mm
04:00 AM 35.0°F1.7°C 33.5°F0.8°C 94% 1.0 mph NW1.6 kmh NW 2.0 mph3.2 kmh 30.32 in1026.8 mb 0.00 in0.0 mm 0.00 in0.0 mm 0.00 in0.0 mm
04:05 AM 34.9°F1.6°C 33.4°F0.8°C 94% 1.0 mph NW1.6 kmh NW 2.0 mph3.2 kmh 30.32 in1026.8 mb 0.00 in0.0 mm 0.00 in0.0 mm 0.00 in0.0 mm
04:10 AM 34.8°F1.6°C 33.3°F0.7°C 94% 3.0 mph NW4.8 kmh NW 3.0 mph4.8 kmh 30.32 in1026.8 mb 0.00 in0.0 mm 0.00 in0.0 mm 0.00 in0.0 mm
04:15 AM 34.9°F1.6°C 33.4°F0.8°C 94% 2.0 mph NW3.2 kmh NW 4.0 mph6.4 kmh 30.33 in1027.1 mb 0.00 in0.0 mm 0.00 in0.0 mm 0.00 in0.0 mm
04:20 AM 35.0°F1.7°C 33.7°F0.9°C 95% 1.0 mph NW1.6 kmh NW 4.0 mph6.4 kmh 30.33 in1027.1 mb 0.00 in0.0 mm 0.00 in0.0 mm 0.00 in0.0 mm
04:25 AM 35.1°F1.7°C 33.8°F1.0°C 95% Calm Calm 1.0 mph1.6 kmh 30.34 in1027.4 mb 0.00 in0.0 mm 0.00 in0.0 mm 0.00 in0.0 mm
04:30 AM 35.0°F1.7°C 33.5°F0.8°C 94% Calm Calm 1.0 mph1.6 kmh 30.34 in1027.4 mb 0.00 in0.0 mm 0.00 in0.0 mm 0.00 in0.0 mm
04:35 AM 35.0°F1.7°C 33.5°F0.8°C 94% 1.0 mph NW1.6 kmh NW 1.0 mph1.6 kmh 30.34 in1027.4 mb 0.00 in0.0 mm 0.00 in0.0 mm 0.00 in0.0 mm
04:40 AM 34.9°F1.6°C 33.4°F0.8°C 94% 1.0 mph NW1.6 kmh NW 1.0 mph1.6 kmh 30.35 in1027.8 mb 0.00 in0.0 mm 0.00 in0.0 mm 0.00 in0.0 mm
04:45 AM 34.8°F1.6°C 33.3°F0.7°C 94% Calm Calm 1.0 mph1.6 kmh 30.34 in1027.4 mb 0.00 in0.0 mm 0.00 in0.0 mm 0.00 in0.0 mm
04:50 AM 34.7°F1.5°C 33.2°F0.7°C 94% Calm Calm 2.0 mph3.2 kmh 30.35 in1027.8 mb 0.00 in0.0 mm 0.00 in0.0 mm 0.00 in0.0 mm
04:55 AM 34.6°F1.4°C 33.1°F0.6°C 94% Calm Calm -- 30.35 in1027.8 mb 0.00 in0.0 mm 0.00 in0.0 mm 0.00 in0.0 mm
05:00 AM 34.5°F1.4°C 33.0°F0.6°C 94% Calm Calm 1.0 mph1.6 kmh 30.34 in1027.4 mb 0.00 in0.0 mm 0.00 in0.0 mm 0.00 in0.0 mm
05:05 AM 34.3°F1.3°C 32.8°F0.4°C 94% Calm Calm 1.0 mph1.6 kmh 30.34 in1027.4 mb 0.00 in0.0 mm 0.00 in0.0 mm 0.00 in0.0 mm
05:10 AM 34.2°F1.2°C 32.7°F0.4°C 94% 2.0 mph NW3.2 kmh NW 2.0 mph3.2 kmh 30.35 in1027.8 mb 0.00 in0.0 mm 0.00 in0.0 mm 0.00 in0.0 mm
05:15 AM 34.0°F1.1°C 32.5°F0.3°C 94% Calm Calm 2.0 mph3.2 kmh 30.35 in1027.8 mb 0.00 in0.0 mm 0.00 in0.0 mm 0.00 in0.0 mm
05:20 AM 33.9°F1.1°C 32.4°F0.2°C 94% Calm Calm 2.0 mph3.2 kmh 30.34 in1027.4 mb 0.00 in0.0 mm 0.00 in0.0 mm 0.00 in0.0 mm
05:25 AM 33.7°F0.9°C 32.2°F0.1°C 94% Calm Calm -- 30.34 in1027.4 mb 0.00 in0.0 mm 0.00 in0.0 mm 0.00 in0.0 mm
05:30 AM 33.6°F0.9°C 32.1°F0.1°C 94% Calm Calm -- 30.35 in1027.8 mb 0.00 in0.0 mm 0.00 in0.0 mm 0.00 in0.0 mm
05:35 AM 33.5°F0.8°C 32.0°F0.0°C 94% 2.0 mph NW3.2 kmh NW 3.0 mph4.8 kmh 30.35 in1027.8 mb 0.00 in0.0 mm 0.00 in0.0 mm 0.00 in0.0 mm
05:40 AM 33.5°F0.8°C 32.0°F0.0°C 94% 2.0 mph NW3.2 kmh NW 3.0 mph4.8 kmh 30.35 in1027.8 mb 0.00 in0.0 mm 0.00 in0.0 mm 0.00 in0.0 mm
05:45 AM 33.5°F0.8°C 32.0°F0.0°C 94% Calm Calm 3.0 mph4.8 kmh 30.35 in1027.8 mb 0.00 in0.0 mm 0.00 in0.0 mm 0.00 in0.0 mm
05:50 AM 33.4°F0.8°C 31.9°F-0.1°C 94% Calm Calm 3.0 mph4.8 kmh 30.36 in1028.1 mb 0.00 in0.0 mm 0.00 in0.0 mm 0.00 in0.0 mm
05:55 AM 33.4°F0.8°C 31.9°F-0.1°C 94% Calm Calm -- 30.36 in1028.1 mb 0.00 in0.0 mm 0.00 in0.0 mm 0.00 in0.0 mm
06:00 AM 33.3°F0.7°C 31.8°F-0.1°C 94% Calm Calm 2.0 mph3.2 kmh 30.36 in1028.1 mb 0.00 in0.0 mm 0.00 in0.0 mm 0.00 in0.0 mm
06:05 AM 33.3°F0.7°C 31.8°F-0.1°C 94% Calm Calm 2.0 mph3.2 kmh 30.36 in1028.1 mb 0.00 in0.0 mm 0.00 in0.0 mm 0.00 in0.0 mm
06:10 AM 33.3°F0.7°C 31.8°F-0.1°C 94% 2.0 mph NW3.2 kmh NW 2.0 mph3.2 kmh 30.36 in1028.1 mb 0.00 in0.0 mm 0.00 in0.0 mm 0.00 in0.0 mm
06:15 AM 33.4°F0.8°C 31.9°F-0.1°C 94% 1.0 mph NW1.6 kmh NW 3.0 mph4.8 kmh 30.36 in1028.1 mb 0.00 in0.0 mm 0.00 in0.0 mm 0.00 in0.0 mm
06:20 AM 33.4°F0.8°C 31.9°F-0.1°C 94% 1.0 mph NW1.6 kmh NW 3.0 mph4.8 kmh 30.37 in1028.4 mb 0.00 in0.0 mm 0.00 in0.0 mm 0.00 in0.0 mm
06:25 AM 33.3°F0.7°C 31.8°F-0.1°C 94% Calm Calm 1.0 mph1.6 kmh 30.37 in1028.4 mb 0.00 in0.0 mm 0.00 in0.0 mm 0.00 in0.0 mm
06:30 AM 33.4°F0.8°C 31.9°F-0.1°C 94% Calm Calm 1.0 mph1.6 kmh 30.36 in1028.1 mb 0.00 in0.0 mm 0.00 in0.0 mm 0.00 in0.0 mm
06:35 AM 33.3°F0.7°C 31.8°F-0.1°C 94% 2.0 mph NW3.2 kmh NW 2.0 mph3.2 kmh 30.37 in1028.4 mb 0.00 in0.0 mm 0.00 in0.0 mm 0.00 in0.0 mm
06:40 AM 33.4°F0.8°C 31.9°F-0.1°C 94% 2.0 mph NW3.2 kmh NW 2.0 mph3.2 kmh 30.37 in1028.4 mb 0.00 in0.0 mm 0.00 in0.0 mm 0.00 in0.0 mm
06:45 AM 33.5°F0.8°C 32.0°F0.0°C 94% 2.0 mph NW3.2 kmh NW 3.0 mph4.8 kmh 30.36 in1028.1 mb 0.00 in0.0 mm 0.00 in0.0 mm 0.00 in0.0 mm
06:50 AM 33.6°F0.9°C 32.1°F0.1°C 94% 3.0 mph NW4.8 kmh NW 4.0 mph6.4 kmh 30.37 in1028.4 mb 0.00 in0.0 mm 0.00 in0.0 mm 0.00 in0.0 mm
06:55 AM 33.9°F1.1°C 32.4°F0.2°C 94% 5.0 mph NW8.0 kmh NW 5.0 mph8.0 kmh 30.37 in1028.4 mb 0.00 in0.0 mm 0.00 in0.0 mm 0.00 in0.0 mm
07:00 AM 34.6°F1.4°C 33.1°F0.6°C 94% 2.0 mph NW3.2 kmh NW 5.0 mph8.0 kmh 30.38 in1028.8 mb 0.00 in0.0 mm 0.00 in0.0 mm 0.00 in0.0 mm
07:05 AM 35.3°F1.8°C 33.5°F0.8°C 93% 2.0 mph NW3.2 kmh NW 5.0 mph8.0 kmh 30.37 in1028.4 mb 0.00 in0.0 mm 0.00 in0.0 mm 0.00 in0.0 mm
07:10 AM 36.1°F2.3°C 34.0°F1.1°C 92% 2.0 mph NW3.2 kmh NW 4.0 mph6.4 kmh 30.38 in1028.8 mb 0.00 in0.0 mm 0.00 in0.0 mm 0.00 in0.0 mm
07:15 AM 36.6°F2.6°C 34.0°F1.1°C 90% 3.0 mph NW4.8 kmh NW 5.0 mph8.0 kmh 30.38 in1028.8 mb 0.00 in0.0 mm 0.00 in0.0 mm 0.00 in0.0 mm
07:20 AM 36.8°F2.7°C 33.6°F0.9°C 88% 3.0 mph NW4.8 kmh NW 5.0 mph8.0 kmh 30.38 in1028.8 mb 0.00 in0.0 mm 0.00 in0.0 mm 0.00 in0.0 mm
07:25 AM 36.9°F2.7°C 33.7°F0.9°C 88% 4.0 mph NW6.4 kmh NW 5.0 mph8.0 kmh 30.38 in1028.8 mb 0.00 in0.0 mm 0.00 in0.0 mm 0.00 in0.0 mm
07:30 AM 37.0°F2.8°C 33.5°F0.8°C 87% 3.0 mph NW4.8 kmh NW 5.0 mph8.0 kmh 30.38 in1028.8 mb 0.00 in0.0 mm 0.00 in0.0 mm 0.00 in0.0 mm
07:35 AM 37.1°F2.8°C 33.3°F0.7°C 86% 1.0 mph NW1.6 kmh NW 5.0 mph8.0 kmh 30.38 in1028.8 mb 0.00 in0.0 mm 0.00 in0.0 mm 0.00 in0.0 mm
07:40 AM 37.5°F3.1°C 33.7°F0.9°C 86% 2.0 mph NW3.2 kmh NW 3.0 mph4.8 kmh 30.38 in1028.8 mb 0.00 in0.0 mm 0.00 in0.0 mm 0.00 in0.0 mm
07:45 AM 37.9°F3.3°C 32.9°F0.5°C 82% 3.0 mph NW4.8 kmh NW 4.0 mph6.4 kmh 30.38 in1028.8 mb 0.00 in0.0 mm 0.00 in0.0 mm 0.00 in0.0 mm
07:50 AM 38.4°F3.6°C 32.8°F0.4°C 80% Calm Calm 4.0 mph6.4 kmh 30.38 in1028.8 mb 0.00 in0.0 mm 0.00 in0.0 mm 0.00 in0.0 mm
07:55 AM 38.7°F3.7°C 32.8°F0.4°C 79% 2.0 mph NW3.2 kmh NW 3.0 mph4.8 kmh 30.38 in1028.8 mb 0.00 in0.0 mm 0.00 in0.0 mm 0.00 in0.0 mm
08:00 AM 39.0°F3.9°C 31.8°F-0.1°C 75% 2.0 mph NW3.2 kmh NW 3.0 mph4.8 kmh 30.38 in1028.8 mb 0.00 in0.0 mm 0.00 in0.0 mm 0.00 in0.0 mm
08:05 AM 39.3°F4.1°C 31.7°F-0.2°C 74% Calm Calm 3.0 mph4.8 kmh 30.39 in1029.1 mb 0.00 in0.0 mm 0.00 in0.0 mm 0.00 in0.0 mm
08:10 AM 39.7°F4.3°C 30.7°F-0.7°C 70% 2.0 mph NW3.2 kmh NW 4.0 mph6.4 kmh 30.39 in1029.1 mb 0.00 in0.0 mm 0.00 in0.0 mm 0.00 in0.0 mm
08:15 AM 40.6°F4.8°C 28.6°F-1.9°C 62% 3.0 mph NW4.8 kmh NW 10.0 mph16.1 kmh 30.39 in1029.1 mb 0.00 in0.0 mm 0.00 in0.0 mm 0.00 in0.0 mm
08:20 AM 42.1°F5.6°C 28.4°F-2.0°C 58% 2.0 mph NW3.2 kmh NW 10.0 mph16.1 kmh 30.40 in1029.5 mb 0.00 in0.0 mm 0.00 in0.0 mm 0.00 in0.0 mm
08:25 AM 42.2°F5.7°C 25.9°F-3.4°C 52% 5.0 mph NW8.0 kmh NW 10.0 mph16.1 kmh 30.40 in1029.5 mb 0.00 in0.0 mm 0.00 in0.0 mm 0.00 in0.0 mm
08:30 AM 42.4°F5.8°C 25.1°F-3.8°C 50% 5.0 mph WNW8.0 kmh WNW 11.0 mph17.7 kmh 30.40 in1029.5 mb 0.00 in0.0 mm 0.00 in0.0 mm 0.00 in0.0 mm
08:35 AM 42.3°F5.7°C 25.9°F-3.4°C 52% 7.0 mph WNW11.3 kmh WNW 11.0 mph17.7 kmh 30.40 in1029.5 mb 0.00 in0.0 mm 0.00 in0.0 mm 0.00 in0.0 mm
08:40 AM 42.2°F5.7°C 25.4°F-3.7°C 51% 5.0 mph NW8.0 kmh NW 9.0 mph14.5 kmh 30.40 in1029.5 mb 0.00 in0.0 mm 0.00 in0.0 mm 0.00 in0.0 mm
08:45 AM 42.3°F5.7°C 24.5°F-4.2°C 49% 11.0 mph NW17.7 kmh NW 13.0 mph20.9 kmh 30.40 in1029.5 mb 0.00 in0.0 mm 0.00 in0.0 mm 0.00 in0.0 mm
08:50 AM 42.3°F5.7°C 25.9°F-3.4°C 52% 11.0 mph NW17.7 kmh NW 15.0 mph24.1 kmh 30.40 in1029.5 mb 0.00 in0.0 mm 0.00 in0.0 mm 0.00 in0.0 mm
08:55 AM 42.6°F5.9°C 28.0°F-2.2°C 56% 5.0 mph NW8.0 kmh NW 8.0 mph12.9 kmh 30.40 in1029.5 mb 0.00 in0.0 mm 0.00 in0.0 mm 0.00 in0.0 mm
09:00 AM 42.8°F6.0°C 25.5°F-3.6°C 50% 7.0 mph NW11.3 kmh NW 11.0 mph17.7 kmh 30.40 in1029.5 mb 0.00 in0.0 mm 0.00 in0.0 mm 0.00 in0.0 mm
09:05 AM 42.9°F6.1°C 25.1°F-3.8°C 49% 3.0 mph NW4.8 kmh NW 11.0 mph17.7 kmh 30.40 in1029.5 mb 0.00 in0.0 mm 0.00 in0.0 mm 0.00 in0.0 mm
09:10 AM 42.9°F6.1°C 26.0°F-3.3°C 51% 3.0 mph NW4.8 kmh NW 10.0 mph16.1 kmh 30.40 in1029.5 mb 0.00 in0.0 mm 0.00 in0.0 mm 0.00 in0.0 mm
09:15 AM 43.4°F6.3°C 26.5°F-3.1°C 51% 2.0 mph W3.2 kmh W 10.0 mph16.1 kmh 30.41 in1029.8 mb 0.00 in0.0 mm 0.00 in0.0 mm 0.00 in0.0 mm
09:20 AM 43.4°F6.3°C 26.5°F-3.1°C 51% 4.0 mph WNW6.4 kmh WNW 10.0 mph16.1 kmh 30.41 in1029.8 mb 0.00 in0.0 mm 0.00 in0.0 mm 0.00 in0.0 mm
09:25 AM 43.6°F6.4°C 25.7°F-3.5°C 49% 3.0 mph NW4.8 kmh NW 8.0 mph12.9 kmh 30.41 in1029.8 mb 0.00 in0.0 mm 0.00 in0.0 mm 0.00 in0.0 mm
09:30 AM 43.2°F6.2°C 25.4°F-3.7°C 49% 8.0 mph NW12.9 kmh NW 8.0 mph12.9 kmh 30.41 in1029.8 mb 0.00 in0.0 mm 0.00 in0.0 mm 0.00 in0.0 mm
09:35 AM 44.1°F6.7°C 27.1°F-2.7°C 51% 5.0 mph NW8.0 kmh NW 9.0 mph14.5 kmh 30.41 in1029.8 mb 0.00 in0.0 mm 0.00 in0.0 mm 0.00 in0.0 mm
09:40 AM 44.1°F6.7°C 25.7°F-3.5°C 48% 4.0 mph NW6.4 kmh NW 5.0 mph8.0 kmh 30.42 in1030.1 mb 0.00 in0.0 mm 0.00 in0.0 mm 0.00 in0.0 mm
09:45 AM 43.9°F6.6°C 26.0°F-3.3°C 49% 7.0 mph W11.3 kmh W 9.0 mph14.5 kmh 30.41 in1029.8 mb 0.00 in0.0 mm 0.00 in0.0 mm 0.00 in0.0 mm
09:50 AM 44.1°F6.7°C 24.1°F-4.4°C 45% 8.0 mph WNW12.9 kmh WNW 9.0 mph14.5 kmh 30.42 in1030.1 mb 0.00 in0.0 mm 0.00 in0.0 mm 0.00 in0.0 mm
09:55 AM 43.3°F6.3°C 23.9°F-4.5°C 46% 5.0 mph NW8.0 kmh NW 5.0 mph8.0 kmh 30.42 in1030.1 mb 0.00 in0.0 mm 0.00 in0.0 mm 0.00 in0.0 mm
10:00 AM 43.4°F6.3°C 23.0°F-5.0°C 44% 3.0 mph NW4.8 kmh NW 8.0 mph12.9 kmh 30.42 in1030.1 mb 0.00 in0.0 mm 0.00 in0.0 mm 0.00 in0.0 mm
10:05 AM 43.8°F6.6°C 23.3°F-4.8°C 44% 1.0 mph NW1.6 kmh NW 8.0 mph12.9 kmh 30.41 in1029.8 mb 0.00 in0.0 mm 0.00 in0.0 mm 0.00 in0.0 mm
10:10 AM 43.4°F6.3°C 26.0°F-3.3°C 50% 3.0 mph N4.8 kmh N 10.0 mph16.1 kmh 30.41 in1029.8 mb 0.00 in0.0 mm 0.00 in0.0 mm 0.00 in0.0 mm
10:15 AM 43.3°F6.3°C 26.9°F-2.8°C 52% 9.0 mph N14.5 kmh N 10.0 mph16.1 kmh 30.41 in1029.8 mb 0.00 in0.0 mm 0.00 in0.0 mm 0.00 in0.0 mm
10:20 AM 43.9°F6.6°C 26.0°F-3.3°C 49% 8.0 mph NNW12.9 kmh NNW 11.0 mph17.7 kmh 30.41 in1029.8 mb 0.00 in0.0 mm 0.00 in0.0 mm 0.00 in0.0 mm
10:25 AM 43.2°F6.2°C 26.8°F-2.9°C 52% 8.0 mph N12.9 kmh N 9.0 mph14.5 kmh 30.41 in1029.8 mb 0.00 in0.0 mm 0.00 in0.0 mm 0.00 in0.0 mm
10:30 AM 43.3°F6.3°C 27.3°F-2.6°C 53% 10.0 mph N16.1 kmh N 12.0 mph19.3 kmh 30.41 in1029.8 mb 0.00 in0.0 mm 0.00 in0.0 mm 0.00 in0.0 mm
10:35 AM 43.6°F6.4°C 27.6°F-2.4°C 53% 11.0 mph N17.7 kmh N 13.0 mph20.9 kmh 30.41 in1029.8 mb 0.00 in0.0 mm 0.00 in0.0 mm 0.00 in0.0 mm
10:40 AM 43.5°F6.4°C 27.5°F-2.5°C 53% 10.0 mph NNE16.1 kmh NNE 11.0 mph17.7 kmh 30.41 in1029.8 mb 0.00 in0.0 mm 0.00 in0.0 mm 0.00 in0.0 mm
10:45 AM 43.3°F6.3°C 29.5°F-1.4°C 58% 10.0 mph NNE16.1 kmh NNE 11.0 mph17.7 kmh 30.41 in1029.8 mb 0.00 in0.0 mm 0.00 in0.0 mm 0.00 in0.0 mm
10:50 AM 43.3°F6.3°C 28.2°F-2.1°C 55% 8.0 mph NNE12.9 kmh NNE 11.0 mph17.7 kmh 30.41 in1029.8 mb 0.00 in0.0 mm 0.00 in0.0 mm 0.00 in0.0 mm
10:55 AM 43.8°F6.6°C 29.6°F-1.3°C 57% 9.0 mph N14.5 kmh N 11.0 mph17.7 kmh 30.41 in1029.8 mb 0.00 in0.0 mm 0.00 in0.0 mm 0.00 in0.0 mm
11:00 AM 43.6°F6.4°C 28.1°F-2.2°C 54% 9.0 mph NNE14.5 kmh NNE 11.0 mph17.7 kmh 30.41 in1029.8 mb 0.00 in0.0 mm 0.00 in0.0 mm 0.00 in0.0 mm
11:05 AM 43.8°F6.6°C 29.1°F-1.6°C 56% 6.0 mph NNE9.7 kmh NNE 11.0 mph17.7 kmh 30.41 in1029.8 mb 0.00 in0.0 mm 0.00 in0.0 mm 0.00 in0.0 mm
11:10 AM 43.6°F6.4°C 27.6°F-2.4°C 53% 5.0 mph NNE8.0 kmh NNE 8.0 mph12.9 kmh 30.41 in1029.8 mb 0.00 in0.0 mm 0.00 in0.0 mm 0.00 in0.0 mm
11:15 AM 43.8°F6.6°C 26.9°F-2.8°C 51% 6.0 mph NNE9.7 kmh NNE 8.0 mph12.9 kmh 30.41 in1029.8 mb 0.00 in0.0 mm 0.00 in0.0 mm 0.00 in0.0 mm
11:20 AM 43.4°F6.3°C 26.5°F-3.1°C 51% 5.0 mph NNE8.0 kmh NNE 8.0 mph12.9 kmh 30.41 in1029.8 mb 0.00 in0.0 mm 0.00 in0.0 mm 0.00 in0.0 mm
11:25 AM 43.6°F6.4°C 28.1°F-2.2°C 54% 8.0 mph N12.9 kmh N 12.0 mph19.3 kmh 30.40 in1029.5 mb 0.00 in0.0 mm 0.00 in0.0 mm 0.00 in0.0 mm
11:30 AM 44.3°F6.8°C 23.8°F-4.6°C 44% 4.0 mph NNW6.4 kmh NNW 14.0 mph22.5 kmh 30.40 in1029.5 mb 0.00 in0.0 mm 0.00 in0.0 mm 0.00 in0.0 mm
11:35 AM 44.4°F6.9°C 27.9°F-2.3°C 52% 6.0 mph NNW9.7 kmh NNW 14.0 mph22.5 kmh 30.40 in1029.5 mb 0.00 in0.0 mm 0.00 in0.0 mm 0.00 in0.0 mm
11:40 AM 44.1°F6.7°C 28.5°F-1.9°C 54% 6.0 mph N9.7 kmh N 8.0 mph12.9 kmh 30.40 in1029.5 mb 0.00 in0.0 mm 0.00 in0.0 mm 0.00 in0.0 mm
11:45 AM 44.2°F6.8°C 28.6°F-1.9°C 54% 5.0 mph N8.0 kmh N 8.0 mph12.9 kmh 30.40 in1029.5 mb 0.00 in0.0 mm 0.00 in0.0 mm 0.00 in0.0 mm
11:50 AM 43.9°F6.6°C 27.9°F-2.3°C 53% 4.0 mph N6.4 kmh N 8.0 mph12.9 kmh 30.40 in1029.5 mb 0.00 in0.0 mm 0.00 in0.0 mm 0.00 in0.0 mm
11:55 AM 44.0°F6.7°C 27.1°F-2.7°C 51% 3.0 mph N4.8 kmh N 5.0 mph8.0 kmh 30.41 in1029.8 mb 0.00 in0.0 mm 0.00 in0.0 mm 0.00 in0.0 mm
12:00 PM 43.8°F6.6°C 26.4°F-3.1°C 50% 6.0 mph N9.7 kmh N 6.0 mph9.7 kmh 30.40 in1029.5 mb 0.00 in0.0 mm 0.00 in0.0 mm 0.00 in0.0 mm
12:05 PM 43.7°F6.5°C 27.2°F-2.7°C 52% 7.0 mph NNE11.3 kmh NNE 8.0 mph12.9 kmh 30.40 in1029.5 mb 0.00 in0.0 mm 0.00 in0.0 mm 0.00 in0.0 mm
12:10 PM 43.9°F6.6°C 26.5°F-3.1°C 50% 8.0 mph NE12.9 kmh NE 8.0 mph12.9 kmh 30.40 in1029.5 mb 0.00 in0.0 mm 0.00 in0.0 mm 0.00 in0.0 mm
12:15 PM 44.1°F6.7°C 23.1°F-4.9°C 43% 6.0 mph NE9.7 kmh NE 9.0 mph14.5 kmh 30.40 in1029.5 mb 0.00 in0.0 mm 0.00 in0.0 mm 0.00 in0.0 mm
12:20 PM 44.5°F6.9°C 24.0°F-4.4°C 44% 2.0 mph NE3.2 kmh NE 9.0 mph14.5 kmh 30.40 in1029.5 mb 0.00 in0.0 mm 0.00 in0.0 mm 0.00 in0.0 mm
12:25 PM 46.7°F8.2°C 23.1°F-4.9°C 39% Calm Calm 3.0 mph4.8 kmh 30.40 in1029.5 mb 0.00 in0.0 mm 0.00 in0.0 mm 0.00 in0.0 mm
12:30 PM 46.3°F7.9°C 23.9°F-4.5°C 41% 3.0 mph NE4.8 kmh NE 4.0 mph6.4 kmh 30.39 in1029.1 mb 0.00 in0.0 mm 0.00 in0.0 mm 0.00 in0.0 mm
12:35 PM 46.4°F8.0°C 23.4°F-4.8°C 40% 5.0 mph NE8.0 kmh NE 6.0 mph9.7 kmh 30.40 in1029.5 mb 0.00 in0.0 mm 0.00 in0.0 mm 0.00 in0.0 mm
12:40 PM 47.5°F8.6°C 23.8°F-4.6°C 39% 2.0 mph ESE3.2 kmh ESE 7.0 mph11.3 kmh 30.40 in1029.5 mb 0.00 in0.0 mm 0.00 in0.0 mm 0.00 in0.0 mm
12:45 PM 47.9°F8.8°C 20.9°F-6.2°C 34% 8.0 mph SW12.9 kmh SW 11.0 mph17.7 kmh 30.39 in1029.1 mb 0.00 in0.0 mm 0.00 in0.0 mm 0.00 in0.0 mm
12:50 PM 48.3°F9.1°C 21.3°F-5.9°C 34% 8.0 mph WSW12.9 kmh WSW 11.0 mph17.7 kmh 30.40 in1029.5 mb 0.00 in0.0 mm 0.00 in0.0 mm 0.00 in0.0 mm
12:55 PM 47.9°F8.8°C 20.2°F-6.6°C 33% 6.0 mph SW9.7 kmh SW 8.0 mph12.9 kmh 30.39 in1029.1 mb 0.00 in0.0 mm 0.00 in0.0 mm 0.00 in0.0 mm
01:00 PM 48.3°F9.1°C 22.6°F-5.2°C 36% 3.0 mph SW4.8 kmh SW 8.0 mph12.9 kmh 30.39 in1029.1 mb 0.00 in0.0 mm 0.00 in0.0 mm 0.00 in0.0 mm
01:05 PM 48.4°F9.1°C 20.6°F-6.3°C 33% 2.0 mph SSW3.2 kmh SSW 8.0 mph12.9 kmh 30.39 in1029.1 mb 0.00 in0.0 mm 0.00 in0.0 mm 0.00 in0.0 mm
01:10 PM 48.4°F9.1°C 21.3°F-5.9°C 34% 1.0 mph SW1.6 kmh SW 3.0 mph4.8 kmh 30.39 in1029.1 mb 0.00 in0.0 mm 0.00 in0.0 mm 0.00 in0.0 mm
01:15 PM 48.2°F9.0°C 22.5°F-5.3°C 36% 2.0 mph SW3.2 kmh SW 4.0 mph6.4 kmh 30.39 in1029.1 mb 0.00 in0.0 mm 0.00 in0.0 mm 0.00 in0.0 mm
01:20 PM 46.3°F7.9°C 23.9°F-4.5°C 41% 7.0 mph NW11.3 kmh NW 8.0 mph12.9 kmh 30.38 in1028.8 mb 0.00 in0.0 mm 0.00 in0.0 mm 0.00 in0.0 mm
01:25 PM 46.0°F7.8°C 21.8°F-5.7°C 38% 9.0 mph NNE14.5 kmh NNE 10.0 mph16.1 kmh 30.38 in1028.8 mb 0.00 in0.0 mm 0.00 in0.0 mm 0.00 in0.0 mm
01:30 PM 45.5°F7.5°C 21.4°F-5.9°C 38% 8.0 mph NNE12.9 kmh NNE 12.0 mph19.3 kmh 30.38 in1028.8 mb 0.00 in0.0 mm 0.00 in0.0 mm 0.00 in0.0 mm
01:35 PM 45.5°F7.5°C 20.8°F-6.2°C 37% 6.0 mph NE9.7 kmh NE 12.0 mph19.3 kmh 30.37 in1028.4 mb 0.00 in0.0 mm 0.00 in0.0 mm 0.00 in0.0 mm
01:40 PM 45.7°F7.6°C 22.8°F-5.1°C 40% 7.0 mph NE11.3 kmh NE 9.0 mph14.5 kmh 30.37 in1028.4 mb 0.00 in0.0 mm 0.00 in0.0 mm 0.00 in0.0 mm
01:45 PM 45.5°F7.5°C 23.8°F-4.6°C 42% 10.0 mph ENE16.1 kmh ENE 14.0 mph22.5 kmh 30.37 in1028.4 mb 0.00 in0.0 mm 0.00 in0.0 mm 0.00 in0.0 mm
01:50 PM 46.1°F7.8°C 18.6°F-7.4°C 33% 1.0 mph NE1.6 kmh NE 14.0 mph22.5 kmh 30.37 in1028.4 mb 0.00 in0.0 mm 0.00 in0.0 mm 0.00 in0.0 mm
01:55 PM 46.3°F7.9°C 26.7°F-2.9°C 46% 10.0 mph NE16.1 kmh NE 12.0 mph19.3 kmh 30.36 in1028.1 mb 0.00 in0.0 mm 0.00 in0.0 mm 0.00 in0.0 mm
02:00 PM 45.9°F7.7°C 24.7°F-4.1°C 43% 7.0 mph NE11.3 kmh NE 13.0 mph20.9 kmh 30.36 in1028.1 mb 0.00 in0.0 mm 0.00 in0.0 mm 0.00 in0.0 mm
02:05 PM 46.0°F7.8°C 21.8°F-5.7°C 38% 4.0 mph NE6.4 kmh NE 13.0 mph20.9 kmh 30.36 in1028.1 mb 0.00 in0.0 mm 0.00 in0.0 mm 0.00 in0.0 mm
02:10 PM 46.2°F7.9°C 24.4°F-4.2°C 42% 7.0 mph NE11.3 kmh NE 11.0 mph17.7 kmh 30.36 in1028.1 mb 0.00 in0.0 mm 0.00 in0.0 mm 0.00 in0.0 mm
02:15 PM 46.2°F7.9°C 21.4°F-5.9°C 37% 2.0 mph NNE3.2 kmh NNE 11.0 mph17.7 kmh 30.36 in1028.1 mb 0.00 in0.0 mm 0.00 in0.0 mm 0.00 in0.0 mm
02:20 PM 46.5°F8.1°C 24.7°F-4.1°C 42% 5.0 mph NE8.0 kmh NE 11.0 mph17.7 kmh 30.35 in1027.8 mb 0.00 in0.0 mm 0.00 in0.0 mm 0.00 in0.0 mm
02:25 PM 47.5°F8.6°C 21.2°F-6.0°C 35% 2.0 mph NE3.2 kmh NE 4.0 mph6.4 kmh 30.35 in1027.8 mb 0.00 in0.0 mm 0.00 in0.0 mm 0.00 in0.0 mm
02:30 PM 48.7°F9.3°C 23.0°F-5.0°C 36% 4.0 mph NE6.4 kmh NE 4.0 mph6.4 kmh 30.35 in1027.8 mb 0.00 in0.0 mm 0.00 in0.0 mm 0.00 in0.0 mm
02:35 PM 48.2°F9.0°C 21.2°F-6.0°C 34% Calm Calm 7.0 mph11.3 kmh 30.35 in1027.8 mb 0.00 in0.0 mm 0.00 in0.0 mm 0.00 in0.0 mm
02:40 PM 49.2°F9.6°C 24.1°F-4.4°C 37% 4.0 mph N6.4 kmh N 6.0 mph9.7 kmh 30.34 in1027.4 mb 0.00 in0.0 mm 0.00 in0.0 mm 0.00 in0.0 mm
02:45 PM 49.5°F9.7°C 21.6°F-5.8°C 33% 2.0 mph WNW3.2 kmh WNW 8.0 mph12.9 kmh 30.34 in1027.4 mb 0.00 in0.0 mm 0.00 in0.0 mm 0.00 in0.0 mm
02:50 PM 49.6°F9.8°C 23.8°F-4.6°C 36% 2.0 mph WSW3.2 kmh WSW 8.0 mph12.9 kmh 30.34 in1027.4 mb 0.00 in0.0 mm 0.00 in0.0 mm 0.00 in0.0 mm
02:55 PM 49.9°F9.9°C 22.7°F-5.2°C 34% 3.0 mph WSW4.8 kmh WSW 3.0 mph4.8 kmh 30.34 in1027.4 mb 0.00 in0.0 mm 0.00 in0.0 mm 0.00 in0.0 mm
03:00 PM 49.9°F9.9°C 22.7°F-5.2°C 34% 5.0 mph SW8.0 kmh SW 8.0 mph12.9 kmh 30.34 in1027.4 mb 0.00 in0.0 mm 0.00 in0.0 mm 0.00 in0.0 mm
03:05 PM 49.5°F9.7°C 21.6°F-5.8°C 33% 9.0 mph WNW14.5 kmh WNW 13.0 mph20.9 kmh 30.34 in1027.4 mb 0.00 in0.0 mm 0.00 in0.0 mm 0.00 in0.0 mm
03:10 PM 48.3°F9.1°C 19.8°F-6.8°C 32% 3.0 mph NW4.8 kmh NW 6.0 mph9.7 kmh 30.34 in1027.4 mb 0.00 in0.0 mm 0.00 in0.0 mm 0.00 in0.0 mm
03:15 PM 48.5°F9.2°C 20.7°F-6.3°C 33% 5.0 mph NW8.0 kmh NW 11.0 mph17.7 kmh 30.33 in1027.1 mb 0.00 in0.0 mm 0.00 in0.0 mm 0.00 in0.0 mm
03:20 PM 48.1°F8.9°C 18.9°F-7.3°C 31% 6.0 mph NNW9.7 kmh NNW 11.0 mph17.7 kmh 30.33 in1027.1 mb 0.00 in0.0 mm 0.00 in0.0 mm 0.00 in0.0 mm
03:25 PM 47.9°F8.8°C 19.5°F-6.9°C 32% 4.0 mph NNW6.4 kmh NNW 5.0 mph8.0 kmh 30.33 in1027.1 mb 0.00 in0.0 mm 0.00 in0.0 mm 0.00 in0.0 mm
03:30 PM 48.6°F9.2°C 20.1°F-6.6°C 32% 4.0 mph NW6.4 kmh NW 6.0 mph9.7 kmh 30.32 in1026.8 mb 0.00 in0.0 mm 0.00 in0.0 mm 0.00 in0.0 mm
03:35 PM 49.1°F9.5°C 20.5°F-6.4°C 32% 4.0 mph WNW6.4 kmh WNW 8.0 mph12.9 kmh 30.32 in1026.8 mb 0.00 in0.0 mm 0.00 in0.0 mm 0.00 in0.0 mm
03:40 PM 48.6°F9.2°C 20.1°F-6.6°C 32% 3.0 mph WNW4.8 kmh WNW 5.0 mph8.0 kmh 30.32 in1026.8 mb 0.00 in0.0 mm 0.00 in0.0 mm 0.00 in0.0 mm
03:45 PM 49.0°F9.4°C 19.7°F-6.8°C 31% 1.0 mph WNW1.6 kmh WNW 5.0 mph8.0 kmh 30.32 in1026.8 mb 0.00 in0.0 mm 0.00 in0.0 mm 0.00 in0.0 mm
03:50 PM 48.6°F9.2°C 17.8°F-7.9°C 29% 7.0 mph NW11.3 kmh NW 9.0 mph14.5 kmh 30.32 in1026.8 mb 0.00 in0.0 mm 0.00 in0.0 mm 0.00 in0.0 mm
03:55 PM 48.2°F9.0°C 19.7°F-6.8°C 32% 6.0 mph NW9.7 kmh NW 11.0 mph17.7 kmh 30.32 in1026.8 mb 0.00 in0.0 mm 0.00 in0.0 mm 0.00 in0.0 mm
04:00 PM 48.2°F9.0°C 21.2°F-6.0°C 34% 5.0 mph NW8.0 kmh NW 11.0 mph17.7 kmh 30.33 in1027.1 mb 0.00 in0.0 mm 0.00 in0.0 mm 0.00 in0.0 mm
04:05 PM 48.0°F8.9°C 18.8°F-7.3°C 31% 6.0 mph NW9.7 kmh NW 12.0 mph19.3 kmh 30.32 in1026.8 mb 0.00 in0.0 mm 0.00 in0.0 mm 0.00 in0.0 mm
04:10 PM 48.2°F9.0°C 21.2°F-6.0°C 34% 2.0 mph NW3.2 kmh NW 8.0 mph12.9 kmh 30.32 in1026.8 mb 0.00 in0.0 mm 0.00 in0.0 mm 0.00 in0.0 mm
04:15 PM 48.2°F9.0°C 22.5°F-5.3°C 36% 9.0 mph NNW14.5 kmh NNW 13.0 mph20.9 kmh 30.32 in1026.8 mb 0.00 in0.0 mm 0.00 in0.0 mm 0.00 in0.0 mm
04:20 PM 47.6°F8.7°C 22.6°F-5.2°C 37% 9.0 mph NNW14.5 kmh NNW 13.0 mph20.9 kmh 30.32 in1026.8 mb 0.00 in0.0 mm 0.00 in0.0 mm 0.00 in0.0 mm
04:25 PM 47.3°F8.5°C 23.0°F-5.0°C 38% 8.0 mph NNW12.9 kmh NNW 8.0 mph12.9 kmh 30.32 in1026.8 mb 0.00 in0.0 mm 0.00 in0.0 mm 0.00 in0.0 mm
04:30 PM 47.6°F8.7°C 22.6°F-5.2°C 37% 4.0 mph NW6.4 kmh NW 10.0 mph16.1 kmh 30.33 in1027.1 mb 0.00 in0.0 mm 0.00 in0.0 mm 0.00 in0.0 mm
04:35 PM 47.4°F8.6°C 24.9°F-3.9°C 41% 9.0 mph NNW14.5 kmh NNW 10.0 mph16.1 kmh 30.33 in1027.1 mb 0.00 in0.0 mm 0.00 in0.0 mm 0.00 in0.0 mm
04:40 PM 47.1°F8.4°C 26.9°F-2.8°C 45% 11.0 mph N17.7 kmh N 12.0 mph19.3 kmh 30.33 in1027.1 mb 0.00 in0.0 mm 0.00 in0.0 mm 0.00 in0.0 mm
04:45 PM 46.9°F8.3°C 27.2°F-2.7°C 46% 11.0 mph N17.7 kmh N 13.0 mph20.9 kmh 30.32 in1026.8 mb 0.00 in0.0 mm 0.00 in0.0 mm 0.00 in0.0 mm
04:50 PM 47.0°F8.3°C 29.3°F-1.5°C 50% 10.0 mph N16.1 kmh N 13.0 mph20.9 kmh 30.32 in1026.8 mb 0.00 in0.0 mm 0.00 in0.0 mm 0.00 in0.0 mm
04:55 PM 47.0°F8.3°C 27.3°F-2.6°C 46% 9.0 mph N14.5 kmh N 11.0 mph17.7 kmh 30.32 in1026.8 mb 0.00 in0.0 mm 0.00 in0.0 mm 0.00 in0.0 mm
05:00 PM 47.0°F8.3°C 26.8°F-2.9°C 45% 10.0 mph N16.1 kmh N 13.0 mph20.9 kmh 30.32 in1026.8 mb 0.00 in0.0 mm 0.00 in0.0 mm 0.00 in0.0 mm
05:05 PM 46.9°F8.3°C 25.6°F-3.6°C 43% 8.0 mph N12.9 kmh N 13.0 mph20.9 kmh 30.33 in1027.1 mb 0.00 in0.0 mm 0.00 in0.0 mm 0.00 in0.0 mm
05:10 PM 46.8°F8.2°C 27.7°F-2.4°C 47% 9.0 mph N14.5 kmh N 11.0 mph17.7 kmh 30.33 in1027.1 mb 0.00 in0.0 mm 0.00 in0.0 mm 0.00 in0.0 mm
05:15 PM 46.9°F8.3°C 27.2°F-2.7°C 46% 8.0 mph N12.9 kmh N 12.0 mph19.3 kmh 30.33 in1027.1 mb 0.00 in0.0 mm 0.00 in0.0 mm 0.00 in0.0 mm
05:20 PM 46.9°F8.3°C 29.3°F-1.5°C 50% 9.0 mph N14.5 kmh N 12.0 mph19.3 kmh 30.33 in1027.1 mb 0.00 in0.0 mm 0.00 in0.0 mm 0.00 in0.0 mm
05:25 PM 46.9°F8.3°C 27.2°F-2.7°C 46% 10.0 mph N16.1 kmh N 10.0 mph16.1 kmh 30.33 in1027.1 mb 0.00 in0.0 mm 0.00 in0.0 mm 0.00 in0.0 mm
05:30 PM 46.9°F8.3°C 26.7°F-2.9°C 45% 8.0 mph N12.9 kmh N 10.0 mph16.1 kmh 30.33 in1027.1 mb 0.00 in0.0 mm 0.00 in0.0 mm 0.00 in0.0 mm
05:35 PM 46.9°F8.3°C 27.2°F-2.7°C 46% 8.0 mph N12.9 kmh N 10.0 mph16.1 kmh 30.33 in1027.1 mb 0.00 in0.0 mm 0.00 in0.0 mm 0.00 in0.0 mm
05:40 PM 46.9°F8.3°C 26.1°F-3.3°C 44% 4.0 mph N6.4 kmh N 8.0 mph12.9 kmh 30.33 in1027.1 mb 0.00 in0.0 mm 0.00 in0.0 mm 0.00 in0.0 mm
05:45 PM 46.9°F8.3°C 25.0°F-3.9°C 42% 6.0 mph N9.7 kmh N 9.0 mph14.5 kmh 30.33 in1027.1 mb 0.00 in0.0 mm 0.00 in0.0 mm 0.00 in0.0 mm
05:50 PM 46.8°F8.2°C 24.9°F-3.9°C 42% 4.0 mph N6.4 kmh N 9.0 mph14.5 kmh 30.34 in1027.4 mb 0.00 in0.0 mm 0.00 in0.0 mm 0.00 in0.0 mm
05:55 PM 46.8°F8.2°C 26.6°F-3.0°C 45% 4.0 mph N6.4 kmh N 5.0 mph8.0 kmh 30.34 in1027.4 mb 0.00 in0.0 mm 0.00 in0.0 mm 0.00 in0.0 mm
06:00 PM 46.8°F8.2°C 24.9°F-3.9°C 42% 4.0 mph N6.4 kmh N 5.0 mph8.0 kmh 30.34 in1027.4 mb 0.00 in0.0 mm 0.00 in0.0 mm 0.00 in0.0 mm
06:05 PM 46.8°F8.2°C 26.1°F-3.3°C 44% 2.0 mph N3.2 kmh N 5.0 mph8.0 kmh 30.34 in1027.4 mb 0.00 in0.0 mm 0.00 in0.0 mm 0.00 in0.0 mm
06:10 PM 46.7°F8.2°C 24.8°F-4.0°C 42% 2.0 mph N3.2 kmh N 3.0 mph4.8 kmh 30.34 in1027.4 mb 0.00 in0.0 mm 0.00 in0.0 mm 0.00 in0.0 mm
06:15 PM 46.7°F8.2°C 26.5°F-3.1°C 45% 2.0 mph N3.2 kmh N 4.0 mph6.4 kmh 30.34 in1027.4 mb 0.00 in0.0 mm 0.00 in0.0 mm 0.00 in0.0 mm
06:20 PM 46.5°F8.1°C 26.9°F-2.8°C 46% 2.0 mph N3.2 kmh N 4.0 mph6.4 kmh 30.34 in1027.4 mb 0.00 in0.0 mm 0.00 in0.0 mm 0.00 in0.0 mm
06:25 PM 46.3°F7.9°C 27.7°F-2.4°C 48% 1.0 mph N1.6 kmh N 2.0 mph3.2 kmh 30.34 in1027.4 mb 0.00 in0.0 mm 0.00 in0.0 mm 0.00 in0.0 mm
06:30 PM 46.2°F7.9°C 27.6°F-2.4°C 48% 1.0 mph N1.6 kmh N 2.0 mph3.2 kmh 30.34 in1027.4 mb 0.00 in0.0 mm 0.00 in0.0 mm 0.00 in0.0 mm
06:35 PM 46.0°F7.8°C 27.9°F-2.3°C 49% Calm Calm 2.0 mph3.2 kmh 30.34 in1027.4 mb 0.00 in0.0 mm 0.00 in0.0 mm 0.00 in0.0 mm
06:40 PM 45.8°F7.7°C 27.2°F-2.7°C 48% Calm Calm -- 30.34 in1027.4 mb 0.00 in0.0 mm 0.00 in0.0 mm 0.00 in0.0 mm
06:45 PM 45.6°F7.6°C 27.6°F-2.4°C 49% Calm Calm -- 30.34 in1027.4 mb 0.00 in0.0 mm 0.00 in0.0 mm 0.00 in0.0 mm
06:50 PM 45.4°F7.4°C 26.9°F-2.8°C 48% Calm Calm -- 30.34 in1027.4 mb 0.00 in0.0 mm 0.00 in0.0 mm 0.00 in0.0 mm
06:55 PM 45.2°F7.3°C 26.7°F-2.9°C 48% Calm Calm -- 30.34 in1027.4 mb 0.00 in0.0 mm 0.00 in0.0 mm 0.00 in0.0 mm
07:00 PM 45.0°F7.2°C 28.5°F-1.9°C 52% Calm Calm -- 30.34 in1027.4 mb 0.00 in0.0 mm 0.00 in0.0 mm 0.00 in0.0 mm
07:05 PM 44.8°F7.1°C 27.3°F-2.6°C 50% Calm Calm -- 30.34 in1027.4 mb 0.00 in0.0 mm 0.00 in0.0 mm 0.00 in0.0 mm
07:10 PM 44.7°F7.1°C 29.5°F-1.4°C 55% Calm Calm -- 30.34 in1027.4 mb 0.00 in0.0 mm 0.00 in0.0 mm 0.00 in0.0 mm
07:15 PM 44.6°F7.0°C 27.6°F-2.4°C 51% Calm Calm -- 30.34 in1027.4 mb 0.00 in0.0 mm 0.00 in0.0 mm 0.00 in0.0 mm
07:20 PM 44.4°F6.9°C 28.4°F-2.0°C 53% Calm Calm -- 30.35 in1027.8 mb 0.00 in0.0 mm 0.00 in0.0 mm 0.00 in0.0 mm
07:25 PM 44.1°F6.7°C 31.1°F-0.5°C 60% 1.0 mph N1.6 kmh N 2.0 mph3.2 kmh 30.35 in1027.8 mb 0.00 in0.0 mm 0.00 in0.0 mm 0.00 in0.0 mm
07:30 PM 44.1°F6.7°C 32.7°F0.4°C 64% Calm Calm 2.0 mph3.2 kmh 30.34 in1027.4 mb 0.00 in0.0 mm 0.00 in0.0 mm 0.00 in0.0 mm
07:35 PM 44.0°F6.7°C 33.0°F0.6°C 65% Calm Calm 2.0 mph3.2 kmh 30.34 in1027.4 mb 0.00 in0.0 mm 0.00 in0.0 mm 0.00 in0.0 mm
07:40 PM 43.8°F6.6°C 33.6°F0.9°C 67% 1.0 mph N1.6 kmh N 2.0 mph3.2 kmh 30.34 in1027.4 mb 0.00 in0.0 mm 0.00 in0.0 mm 0.00 in0.0 mm
07:45 PM 43.4°F6.3°C 32.4°F0.2°C 65% 1.0 mph N1.6 kmh N 2.0 mph3.2 kmh 30.35 in1027.8 mb 0.00 in0.0 mm 0.00 in0.0 mm 0.00 in0.0 mm
07:50 PM 43.2°F6.2°C 31.5°F-0.3°C 63% 1.0 mph N1.6 kmh N 2.0 mph3.2 kmh 30.35 in1027.8 mb 0.00 in0.0 mm 0.00 in0.0 mm 0.00 in0.0 mm
07:55 PM 43.0°F6.1°C 31.7°F-0.2°C 64% Calm Calm 1.0 mph1.6 kmh 30.35 in1027.8 mb 0.00 in0.0 mm 0.00 in0.0 mm 0.00 in0.0 mm
08:00 PM 42.9°F6.1°C 32.3°F0.2°C 66% Calm Calm 1.0 mph1.6 kmh 30.35 in1027.8 mb 0.00 in0.0 mm 0.00 in0.0 mm 0.00 in0.0 mm
08:05 PM 42.8°F6.0°C 32.2°F0.1°C 66% Calm Calm 1.0 mph1.6 kmh 30.35 in1027.8 mb 0.00 in0.0 mm 0.00 in0.0 mm 0.00 in0.0 mm
08:10 PM 42.8°F6.0°C 32.2°F0.1°C 66% Calm Calm 1.0 mph1.6 kmh 30.35 in1027.8 mb 0.00 in0.0 mm 0.00 in0.0 mm 0.00 in0.0 mm
08:15 PM 42.8°F6.0°C 32.6°F0.3°C 67% Calm Calm 2.0 mph3.2 kmh 30.35 in1027.8 mb 0.00 in0.0 mm 0.00 in0.0 mm 0.00 in0.0 mm
08:20 PM 42.6°F5.9°C 32.4°F0.2°C 67% Calm Calm 2.0 mph3.2 kmh 30.35 in1027.8 mb 0.00 in0.0 mm 0.00 in0.0 mm 0.00 in0.0 mm
08:25 PM 42.5°F5.8°C 32.3°F0.2°C 67% Calm Calm -- 30.35 in1027.8 mb 0.00 in0.0 mm 0.00 in0.0 mm 0.00 in0.0 mm
08:30 PM 42.3°F5.7°C 32.9°F0.5°C 69% Calm Calm 2.0 mph3.2 kmh 30.35 in1027.8 mb 0.00 in0.0 mm 0.00 in0.0 mm 0.00 in0.0 mm
08:35 PM 42.1°F5.6°C 33.4°F0.8°C 71% 2.0 mph N3.2 kmh N 2.0 mph3.2 kmh 30.35 in1027.8 mb 0.00 in0.0 mm 0.00 in0.0 mm 0.00 in0.0 mm
08:40 PM 41.9°F5.5°C 33.6°F0.9°C 72% Calm Calm 2.0 mph3.2 kmh 30.34 in1027.4 mb 0.00 in0.0 mm 0.00 in0.0 mm 0.00 in0.0 mm
08:45 PM 41.5°F5.3°C 33.5°F0.8°C 73% 1.0 mph N1.6 kmh N 2.0 mph3.2 kmh 30.34 in1027.4 mb 0.00 in0.0 mm 0.00 in0.0 mm 0.00 in0.0 mm
08:50 PM 41.2°F5.1°C 33.2°F0.7°C 73% Calm Calm 2.0 mph3.2 kmh 30.34 in1027.4 mb 0.00 in0.0 mm 0.00 in0.0 mm 0.00 in0.0 mm
08:55 PM 40.9°F4.9°C 32.9°F0.5°C 73% Calm Calm -- 30.35 in1027.8 mb 0.00 in0.0 mm 0.00 in0.0 mm 0.00 in0.0 mm
09:00 PM 40.7°F4.8°C 33.4°F0.8°C 75% 3.0 mph N4.8 kmh N 5.0 mph8.0 kmh 30.35 in1027.8 mb 0.00 in0.0 mm 0.00 in0.0 mm 0.00 in0.0 mm
09:05 PM 40.9°F4.9°C 33.9°F1.1°C 76% 3.0 mph N4.8 kmh N 5.0 mph8.0 kmh 30.35 in1027.8 mb 0.00 in0.0 mm 0.00 in0.0 mm 0.00 in0.0 mm
09:10 PM 41.4°F5.2°C 34.7°F1.5°C 77% 6.0 mph NNE9.7 kmh NNE 8.0 mph12.9 kmh 30.35 in1027.8 mb 0.00 in0.0 mm 0.00 in0.0 mm 0.00 in0.0 mm
09:15 PM 41.9°F5.5°C 34.6°F1.4°C 75% 6.0 mph NE9.7 kmh NE 9.0 mph14.5 kmh 30.35 in1027.8 mb 0.00 in0.0 mm 0.00 in0.0 mm 0.00 in0.0 mm
09:20 PM 42.0°F5.6°C 34.3°F1.3°C 74% 4.0 mph NE6.4 kmh NE 9.0 mph14.5 kmh 30.35 in1027.8 mb 0.00 in0.0 mm 0.00 in0.0 mm 0.00 in0.0 mm
09:25 PM 42.2°F5.7°C 35.2°F1.8°C 76% 5.0 mph NE8.0 kmh NE 6.0 mph9.7 kmh 30.35 in1027.8 mb 0.00 in0.0 mm 0.00 in0.0 mm 0.00 in0.0 mm
09:30 PM 42.5°F5.8°C 35.8°F2.1°C 77% 6.0 mph NE9.7 kmh NE 7.0 mph11.3 kmh 30.35 in1027.8 mb 0.00 in0.0 mm 0.00 in0.0 mm 0.00 in0.0 mm
09:35 PM 42.6°F5.9°C 35.9°F2.2°C 77% 6.0 mph NE9.7 kmh NE 7.0 mph11.3 kmh 30.35 in1027.8 mb 0.00 in0.0 mm 0.00 in0.0 mm 0.00 in0.0 mm
09:40 PM 42.6°F5.9°C 35.2°F1.8°C 75% 7.0 mph NE11.3 kmh NE 9.0 mph14.5 kmh 30.34 in1027.4 mb 0.00 in0.0 mm 0.00 in0.0 mm 0.00 in0.0 mm
09:45 PM 42.7°F5.9°C 35.7°F2.1°C 76% 9.0 mph NE14.5 kmh NE 11.0 mph17.7 kmh 30.35 in1027.8 mb 0.00 in0.0 mm 0.00 in0.0 mm 0.00 in0.0 mm
09:50 PM 42.9°F6.1°C 35.5°F1.9°C 75% 11.0 mph NE17.7 kmh NE 12.0 mph19.3 kmh 30.35 in1027.8 mb 0.00 in0.0 mm 0.00 in0.0 mm 0.00 in0.0 mm
09:55 PM 42.9°F6.1°C 35.2°F1.8°C 74% 7.0 mph NE11.3 kmh NE 11.0 mph17.7 kmh 30.35 in1027.8 mb 0.00 in0.0 mm 0.00 in0.0 mm 0.00 in0.0 mm
10:00 PM 43.0°F6.1°C 35.0°F1.7°C 73% 11.0 mph NE17.7 kmh NE 12.0 mph19.3 kmh 30.35 in1027.8 mb 0.00 in0.0 mm 0.00 in0.0 mm 0.00 in0.0 mm
10:05 PM 43.1°F6.2°C 35.4°F1.9°C 74% 9.0 mph NE14.5 kmh NE 12.0 mph19.3 kmh 30.35 in1027.8 mb 0.00 in0.0 mm 0.00 in0.0 mm 0.00 in0.0 mm
10:10 PM 43.2°F6.2°C 35.5°F1.9°C 74% 10.0 mph NE16.1 kmh NE 12.0 mph19.3 kmh 30.35 in1027.8 mb 0.00 in0.0 mm 0.00 in0.0 mm 0.00 in0.0 mm
10:15 PM 43.1°F6.2°C 34.7°F1.5°C 72% 9.0 mph NE14.5 kmh NE 12.0 mph19.3 kmh 30.35 in1027.8 mb 0.00 in0.0 mm 0.00 in0.0 mm 0.00 in0.0 mm
10:20 PM 43.1°F6.2°C 35.1°F1.7°C 73% 11.0 mph NE17.7 kmh NE 12.0 mph19.3 kmh 30.35 in1027.8 mb 0.00 in0.0 mm 0.00 in0.0 mm 0.00 in0.0 mm
10:25 PM 43.2°F6.2°C 35.1°F1.7°C 73% 11.0 mph NE17.7 kmh NE 11.0 mph17.7 kmh 30.35 in1027.8 mb 0.00 in0.0 mm 0.00 in0.0 mm 0.00 in0.0 mm
10:30 PM 43.2°F6.2°C 35.5°F1.9°C 74% 9.0 mph NE14.5 kmh NE 12.0 mph19.3 kmh 30.35 in1027.8 mb 0.00 in0.0 mm 0.00 in0.0 mm 0.00 in0.0 mm
10:35 PM 43.1°F6.2°C 35.4°F1.9°C 74% 7.0 mph NE11.3 kmh NE 12.0 mph19.3 kmh 30.35 in1027.8 mb 0.00 in0.0 mm 0.00 in0.0 mm 0.00 in0.0 mm
10:40 PM 43.1°F6.2°C 35.7°F2.1°C 75% 4.0 mph NE6.4 kmh NE 5.0 mph8.0 kmh 30.35 in1027.8 mb 0.00 in0.0 mm 0.00 in0.0 mm 0.00 in0.0 mm
10:45 PM 43.0°F6.1°C 35.3°F1.8°C 74% 6.0 mph NE9.7 kmh NE 7.0 mph11.3 kmh 30.35 in1027.8 mb 0.00 in0.0 mm 0.00 in0.0 mm 0.00 in0.0 mm
10:50 PM 42.9°F6.1°C 34.9°F1.6°C 73% 7.0 mph NE11.3 kmh NE 9.0 mph14.5 kmh 30.35 in1027.8 mb 0.00 in0.0 mm 0.00 in0.0 mm 0.00 in0.0 mm
10:55 PM 42.8°F6.0°C 34.4°F1.3°C 72% 7.0 mph NE11.3 kmh NE 9.0 mph14.5 kmh 30.35 in1027.8 mb 0.00 in0.0 mm 0.00 in0.0 mm 0.00 in0.0 mm
11:00 PM 42.8°F6.0°C 34.4°F1.3°C 72% 7.0 mph NE11.3 kmh NE 9.0 mph14.5 kmh 30.35 in1027.8 mb 0.00 in0.0 mm 0.00 in0.0 mm 0.00 in0.0 mm
11:05 PM 43.0°F6.1°C 35.3°F1.8°C 74% 10.0 mph NE16.1 kmh NE 11.0 mph17.7 kmh 30.34 in1027.4 mb 0.00 in0.0 mm 0.00 in0.0 mm 0.00 in0.0 mm
11:10 PM 43.1°F6.2°C 35.1°F1.7°C 73% 9.0 mph NE14.5 kmh NE 11.0 mph17.7 kmh 30.34 in1027.4 mb 0.00 in0.0 mm 0.00 in0.0 mm 0.00 in0.0 mm
11:15 PM 43.1°F6.2°C 34.7°F1.5°C 72% 11.0 mph NE17.7 kmh NE 12.0 mph19.3 kmh 30.35 in1027.8 mb 0.00 in0.0 mm 0.00 in0.0 mm 0.00 in0.0 mm
11:20 PM 43.1°F6.2°C 35.1°F1.7°C 73% 5.0 mph NE8.0 kmh NE 12.0 mph19.3 kmh 30.35 in1027.8 mb 0.00 in0.0 mm 0.00 in0.0 mm 0.00 in0.0 mm
11:25 PM 43.1°F6.2°C 35.1°F1.7°C 73% 7.0 mph NE11.3 kmh NE 7.0 mph11.3 kmh 30.34 in1027.4 mb 0.00 in0.0 mm 0.00 in0.0 mm 0.00 in0.0 mm
11:30 PM 43.0°F6.1°C 35.0°F1.7°C 73% 3.0 mph NE4.8 kmh NE 10.0 mph16.1 kmh 30.34 in1027.4 mb 0.00 in0.0 mm 0.00 in0.0 mm 0.00 in0.0 mm
11:35 PM 42.8°F6.0°C 35.1°F1.7°C 74% 1.0 mph NE1.6 kmh NE 10.0 mph16.1 kmh 30.34 in1027.4 mb 0.00 in0.0 mm 0.00 in0.0 mm 0.00 in0.0 mm
11:40 PM 42.6°F5.9°C 34.9°F1.6°C 74% 1.0 mph NE1.6 kmh NE 3.0 mph4.8 kmh 30.34 in1027.4 mb 0.00 in0.0 mm 0.00 in0.0 mm 0.00 in0.0 mm
11:45 PM 42.4°F5.8°C 34.7°F1.5°C 74% Calm Calm 3.0 mph4.8 kmh 30.34 in1027.4 mb 0.00 in0.0 mm 0.00 in0.0 mm 0.00 in0.0 mm
11:50 PM 42.2°F5.7°C 34.5°F1.4°C 74% 1.0 mph NE1.6 kmh NE 3.0 mph4.8 kmh 30.34 in1027.4 mb 0.00 in0.0 mm 0.00 in0.0 mm 0.00 in0.0 mm
11:55 PM 41.9°F5.5°C 34.2°F1.2°C 74% 2.0 mph NE3.2 kmh NE 3.0 mph4.8 kmh 30.34 in1027.4 mb 0.00 in0.0 mm 0.00 in0.0 mm 0.00 in0.0 mm